createdAt,value
2019-04-14T00:00:34.166Z,19.4
2019-04-14T00:01:22.171Z,19.4
2019-04-14T00:02:10.226Z,19.4
2019-04-14T00:03:02.784Z,19.4
2019-04-14T00:03:50.628Z,19.4
2019-04-14T00:04:44.316Z,19.3
2019-04-14T00:05:41.311Z,19.3
2019-04-14T00:06:24.871Z,19.3
2019-04-14T00:07:16.522Z,19.3
2019-04-14T00:08:02.619Z,19.2
2019-04-14T00:08:54.303Z,19.2
2019-04-14T00:09:43.353Z,19.1
2019-04-14T00:10:35.916Z,19.1
2019-04-14T00:11:24.353Z,19.1
2019-04-14T00:12:23.208Z,19.1
2019-04-14T00:13:05.290Z,19
2019-04-14T00:13:57.213Z,19
2019-04-14T00:14:46.668Z,18.9
2019-04-14T00:16:09.359Z,18.9
2019-04-14T00:16:29.370Z,18.9
2019-04-14T00:17:21.520Z,18.9
2019-04-14T00:18:11.622Z,18.9
2019-04-14T00:18:59.830Z,18.8
2019-04-14T00:19:50.111Z,18.8
2019-04-14T00:20:38.224Z,18.8
2019-04-14T00:21:30.850Z,18.9
2019-04-14T00:22:20.980Z,19
2019-04-14T00:23:09.172Z,19.1
2019-04-14T00:24:00.848Z,19.1
2019-04-14T00:24:49.457Z,19.2
2019-04-14T00:25:41.204Z,19.3
2019-04-14T00:26:31.485Z,19.3
2019-04-14T00:27:23.389Z,19.4
2019-04-14T00:28:11.620Z,19.4
2019-04-14T00:29:02.475Z,19.5
2019-04-14T00:29:50.859Z,19.6
2019-04-14T00:30:43.100Z,19.6
2019-04-14T00:31:32.842Z,19.7
2019-04-14T00:32:20.982Z,19.8
2019-04-14T00:33:11.145Z,19.9
2019-04-14T00:34:01.387Z,19.9
2019-04-14T00:34:51.286Z,19.8
2019-04-14T00:35:40.598Z,19.7
2019-04-14T00:36:30.932Z,19.6
2019-04-14T00:37:22.639Z,19.6
2019-04-14T00:38:13.511Z,19.6
2019-04-14T00:39:00.913Z,19.6
2019-04-14T00:39:51.056Z,19.6
2019-04-14T00:40:47.530Z,19.6
2019-04-14T00:42:10.081Z,19.6
2019-04-14T00:42:31.790Z,19.6
2019-04-14T00:43:22.254Z,19.7
2019-04-14T00:44:12.419Z,19.6
2019-04-14T00:45:02.714Z,19.6
2019-04-14T00:46:19.458Z,19.6
2019-04-14T00:46:47.948Z,19.6
2019-04-14T00:47:31.021Z,19.6
2019-04-14T00:48:40.829Z,19.6
2019-04-14T00:49:11.951Z,19.6
2019-04-14T00:50:03.604Z,19.5
2019-04-14T00:50:50.098Z,19.5
2019-04-14T00:51:49.116Z,19.5
2019-04-14T00:52:32.464Z,19.5
2019-04-14T00:53:23.502Z,19.5
2019-04-14T00:54:11.833Z,19.4
2019-04-14T00:55:03.190Z,19.4
2019-04-14T00:55:53.200Z,19.4
2019-04-14T00:56:41.103Z,19.4
2019-04-14T00:57:33.042Z,19.3
2019-04-14T00:58:21.358Z,19.3
2019-04-14T00:59:11.938Z,19.3
2019-04-14T01:00:01.679Z,19.3
2019-04-14T01:00:55.807Z,19.3
2019-04-14T01:01:42.665Z,19.2
2019-04-14T01:02:32.298Z,19.2
2019-04-14T01:03:22.880Z,19.1
2019-04-14T01:04:10.796Z,19.1
2019-04-14T01:05:00.672Z,19.1
2019-04-14T01:05:54.636Z,19.1
2019-04-14T01:06:43.277Z,19
2019-04-14T01:07:33.192Z,19
2019-04-14T01:08:23.282Z,18.9
2019-04-14T01:09:11.142Z,18.9
2019-04-14T01:10:02.297Z,18.9
2019-04-14T01:10:54.483Z,18.9
2019-04-14T01:11:44.821Z,18.8
2019-04-14T01:12:34.839Z,18.8
2019-04-14T01:13:31.594Z,18.8
2019-04-14T01:14:14.680Z,18.8
2019-04-14T01:15:05.482Z,18.8
2019-04-14T01:16:41.314Z,18.8
2019-04-14T01:17:03.329Z,18.9
2019-04-14T01:17:51.352Z,19
2019-04-14T01:18:43.464Z,19.1
2019-04-14T01:19:33.084Z,19.1
2019-04-14T01:20:23.679Z,19.2
2019-04-14T01:21:15.220Z,19.3
2019-04-14T01:22:05.208Z,19.3
2019-04-14T01:22:53.651Z,19.3
2019-04-14T01:23:46.001Z,19.4
2019-04-14T01:24:34.618Z,19.5
2019-04-14T01:25:24.379Z,19.6
2019-04-14T01:26:13.853Z,19.6
2019-04-14T01:27:01.881Z,19.8
2019-04-14T01:27:53.767Z,19.8
2019-04-14T01:28:42.346Z,19.9
2019-04-14T01:29:34.029Z,19.8
2019-04-14T01:30:26.186Z,19.6
2019-04-14T01:31:16.130Z,19.5
2019-04-14T01:32:04.416Z,19.5
2019-04-14T01:32:54.853Z,19.5
2019-04-14T01:33:44.941Z,19.5
2019-04-14T01:34:34.738Z,19.6
2019-04-14T01:35:25.378Z,19.6
2019-04-14T01:36:15.311Z,19.6
2019-04-14T01:37:05.640Z,19.6
2019-04-14T01:37:53.575Z,19.6
2019-04-14T01:38:44.889Z,19.6
2019-04-14T01:39:34.915Z,19.6
2019-04-14T01:40:25.143Z,19.6
2019-04-14T01:41:15.683Z,19.6
2019-04-14T01:42:05.418Z,19.5
2019-04-14T01:42:55.869Z,19.5
2019-04-14T01:43:45.752Z,19.4
2019-04-14T01:44:33.755Z,19.4
2019-04-14T01:45:25.810Z,19.4
2019-04-14T01:46:52.505Z,19.4
2019-04-14T01:47:18.084Z,19.4
2019-04-14T01:48:05.887Z,19.4
2019-04-14T01:48:54.950Z,19.4
2019-04-14T01:49:44.910Z,19.3
2019-04-14T01:50:36.550Z,19.3
2019-04-14T01:51:25.020Z,19.3
2019-04-14T01:52:14.290Z,19.2
2019-04-14T01:53:05.305Z,19.2
2019-04-14T01:53:55.467Z,19.1
2019-04-14T01:54:45.792Z,19.1
2019-04-14T01:55:33.306Z,19.1
2019-04-14T01:56:25.682Z,19.1
2019-04-14T01:57:15.785Z,19
2019-04-14T01:58:05.859Z,19
2019-04-14T01:58:53.929Z,19
2019-04-14T01:59:44.042Z,18.9
2019-04-14T02:00:32.115Z,18.9
2019-04-14T02:01:24.525Z,18.9
2019-04-14T02:02:16.717Z,18.9
2019-04-14T02:03:04.040Z,18.8
2019-04-14T02:03:54.088Z,18.8
2019-04-14T02:04:44.862Z,18.8
2019-04-14T02:05:34.205Z,18.8
2019-04-14T02:08:07.417Z,18.6
2019-04-14T02:08:57.429Z,18.6
2019-04-14T02:09:48.903Z,18.6
2019-04-14T02:10:36.656Z,18.8
2019-04-14T02:11:27.482Z,18.9
2019-04-14T02:12:16.988Z,18.9
2019-04-14T02:13:07.680Z,19
2019-04-14T02:13:57.732Z,19
2019-04-14T02:14:45.366Z,19.1
2019-04-14T02:15:37.305Z,19.1
2019-04-14T02:17:21.913Z,19.1
2019-04-14T02:17:45.902Z,19.3
2019-04-14T02:18:34.264Z,19.4
2019-04-14T02:19:26.877Z,19.5
2019-04-14T02:20:14.915Z,19.6
2019-04-14T02:21:06.437Z,19.7
2019-04-14T02:21:58.381Z,19.8
2019-04-14T02:22:46.202Z,19.9
2019-04-14T02:23:38.566Z,19.7
2019-04-14T02:24:27.109Z,19.6
2019-04-14T02:25:16.519Z,19.4
2019-04-14T02:26:09.653Z,19.4
2019-04-14T02:26:59.007Z,19.4
2019-04-14T02:27:47.182Z,19.5
2019-04-14T02:28:37.423Z,19.5
2019-04-14T02:29:25.990Z,19.5
2019-04-14T02:36:05.403Z,19.5
2019-04-14T02:51:12.173Z,19.5
2019-04-14T03:34:12.564Z,19.4
2019-04-14T03:49:13.683Z,19.3
2019-04-14T03:56:25.523Z,18.8
2019-04-14T03:56:47.239Z,18.6
2019-04-14T03:57:43.839Z,18.6
2019-04-14T03:58:32.161Z,18.8
2019-04-14T03:59:15.658Z,18.8
2019-04-14T04:00:07.349Z,18.9
2019-04-14T04:00:58.090Z,18.9
2019-04-14T04:01:45.674Z,19.1
2019-04-14T04:02:36.461Z,19.1
2019-04-14T04:03:25.948Z,19.1
2019-04-14T04:04:18.359Z,19.2
2019-04-14T04:05:06.905Z,19.3
2019-04-14T04:06:00.662Z,19.4
2019-04-14T04:06:49.071Z,19.4
2019-04-14T04:07:38.813Z,19.4
2019-04-14T04:08:29.011Z,19.5
2019-04-14T04:09:19.159Z,19.6
2019-04-14T04:10:09.835Z,19.7
2019-04-14T04:10:58.061Z,19.6
2019-04-14T04:11:48.325Z,19.4
2019-04-14T04:12:39.953Z,19.3
2019-04-14T04:13:30.705Z,19.2
2019-04-14T04:14:18.090Z,19.2
2019-04-14T04:15:10.927Z,19.3
2019-04-14T04:15:56.875Z,19.3
2019-04-14T04:16:48.891Z,19.3
2019-04-14T04:17:38.713Z,19.4
2019-04-14T04:18:28.701Z,19.4
2019-04-14T04:19:36.414Z,19.4
2019-04-14T04:20:08.822Z,19.4
2019-04-14T04:21:00.627Z,19.4
2019-04-14T04:21:49.470Z,19.4
2019-04-14T04:22:39.000Z,19.3
2019-04-14T04:23:29.665Z,19.3
2019-04-14T04:24:17.722Z,19.3
2019-04-14T04:25:09.862Z,19.3
2019-04-14T04:25:59.970Z,19.3
2019-04-14T04:26:49.575Z,19.3
2019-04-14T04:27:37.524Z,19.3
2019-04-14T04:28:27.824Z,19.3
2019-04-14T04:29:22.100Z,19.2
2019-04-14T04:30:10.399Z,19.2
2019-04-14T04:30:58.222Z,19.2
2019-04-14T04:31:46.626Z,19.1
2019-04-14T04:32:40.441Z,19.1
2019-04-14T04:33:31.051Z,19.1
2019-04-14T04:34:19.024Z,19.1
2019-04-14T04:35:11.206Z,19.1
2019-04-14T04:36:01.052Z,19.1
2019-04-14T04:36:48.744Z,19.1
2019-04-14T04:37:41.119Z,19
2019-04-14T04:38:31.757Z,18.9
2019-04-14T04:39:19.462Z,18.9
2019-04-14T04:40:11.418Z,18.9
2019-04-14T04:40:59.286Z,18.9
2019-04-14T04:41:52.065Z,18.8
2019-04-14T04:42:39.968Z,18.8
2019-04-14T04:43:29.717Z,18.8
2019-04-14T04:44:22.296Z,18.8
2019-04-14T04:46:52.607Z,18.6
2019-04-14T04:47:38.824Z,18.6
2019-04-14T04:48:32.597Z,18.6
2019-04-14T04:49:47.048Z,18.6
2019-04-14T04:50:12.862Z,18.6
2019-04-14T04:51:01.170Z,18.6
2019-04-14T04:52:40.929Z,18.8
2019-04-14T04:53:32.836Z,18.9
2019-04-14T04:54:23.743Z,18.9
2019-04-14T04:55:11.736Z,19
2019-04-14T04:56:01.461Z,19.1
2019-04-14T04:56:49.828Z,19.2
2019-04-14T04:57:40.022Z,19.3
2019-04-14T04:58:30.500Z,19.3
2019-04-14T04:59:21.246Z,19.4
2019-04-14T05:00:15.331Z,19.4
2019-04-14T05:01:14.960Z,19.6
2019-04-14T05:01:51.532Z,19.6
2019-04-14T05:02:44.407Z,19.7
2019-04-14T05:03:34.452Z,19.8
2019-04-14T05:04:22.932Z,19.6
2019-04-14T05:05:12.145Z,19.5
2019-04-14T05:06:02.586Z,19.4
2019-04-14T05:06:53.084Z,19.3
2019-04-14T05:07:41.013Z,19.4
2019-04-14T05:08:32.568Z,19.4
2019-04-14T05:09:23.011Z,19.4
2019-04-14T05:10:13.681Z,19.4
2019-04-14T05:11:01.582Z,19.5
2019-04-14T05:11:58.051Z,19.6
2019-04-14T05:12:41.537Z,19.5
2019-04-14T05:13:31.797Z,19.4
2019-04-14T05:14:24.577Z,19.4
2019-04-14T05:15:13.818Z,19.4
2019-04-14T05:16:06.232Z,19.4
2019-04-14T05:16:50.951Z,19.4
2019-04-14T05:17:45.714Z,19.4
2019-04-14T05:18:33.480Z,19.4
2019-04-14T05:19:58.291Z,19.3
2019-04-14T05:20:22.939Z,19.3
2019-04-14T05:21:10.942Z,19.3
2019-04-14T05:21:59.043Z,19.3
2019-04-14T05:22:52.834Z,19.3
2019-04-14T05:23:41.531Z,19.2
2019-04-14T05:24:29.543Z,19.2
2019-04-14T05:25:20.158Z,19.2
2019-04-14T05:26:11.233Z,19.1
2019-04-14T05:27:03.524Z,19.1
2019-04-14T05:27:51.497Z,19.1
2019-04-14T05:28:41.883Z,19.1
2019-04-14T05:29:30.420Z,19.1
2019-04-14T05:30:21.752Z,19.1
2019-04-14T05:31:12.633Z,19
2019-04-14T05:32:00.109Z,18.9
2019-04-14T05:32:48.471Z,18.9
2019-04-14T05:33:40.613Z,18.9
2019-04-14T05:34:30.700Z,18.9
2019-04-14T05:35:22.636Z,18.8
2019-04-14T05:36:09.291Z,18.8
2019-04-14T05:36:58.449Z,18.8
2019-04-14T05:37:50.455Z,18.8
2019-04-14T05:38:50.060Z,18.8
2019-04-14T05:41:11.738Z,18.6
2019-04-14T05:42:44.907Z,18.6
2019-04-14T05:43:07.207Z,18.6
2019-04-14T05:44:21.247Z,18.6
2019-04-14T05:44:47.114Z,18.8
2019-04-14T05:45:37.229Z,18.8
2019-04-14T05:46:25.733Z,18.8
2019-04-14T05:47:15.525Z,18.9
2019-04-14T05:48:07.987Z,18.9
2019-04-14T05:48:58.334Z,19.1
2019-04-14T05:50:14.203Z,19.1
2019-04-14T05:50:37.638Z,19.3
2019-04-14T05:51:33.497Z,19.3
2019-04-14T05:52:16.837Z,19.4
2019-04-14T05:53:06.967Z,19.4
2019-04-14T05:53:56.635Z,19.6
2019-04-14T05:54:47.096Z,19.6
2019-04-14T05:55:37.532Z,19.7
2019-04-14T05:56:27.375Z,19.6
2019-04-14T05:57:17.601Z,19.5
2019-04-14T05:58:06.206Z,19.4
2019-04-14T05:58:57.861Z,19.3
2019-04-14T05:59:48.320Z,19.3
2019-04-14T06:00:39.097Z,19.4
2019-04-14T06:01:28.931Z,19.4
2019-04-14T06:02:16.349Z,19.4
2019-04-14T06:03:08.024Z,19.4
2019-04-14T06:05:23.682Z,19.4
2019-04-14T06:05:58.600Z,19.4
2019-04-14T06:06:47.639Z,19.4
2019-04-14T06:07:37.983Z,19.4
2019-04-14T06:08:27.743Z,19.4
2019-04-14T06:09:18.560Z,19.4
2019-04-14T06:10:08.083Z,19.4
2019-04-14T06:10:57.548Z,19.4
2019-04-14T06:11:48.531Z,19.4
2019-04-14T06:12:37.688Z,19.4
2019-04-14T06:13:28.891Z,19.3
2019-04-14T06:14:17.649Z,19.3
2019-04-14T06:15:08.796Z,19.3
2019-04-14T06:15:58.483Z,19.3
2019-04-14T06:16:48.815Z,19.3
2019-04-14T06:17:38.948Z,19.3
2019-04-14T06:18:27.903Z,19.2
2019-04-14T06:19:18.571Z,19.2
2019-04-14T06:20:09.202Z,19.1
2019-04-14T06:20:58.923Z,19.1
2019-04-14T06:21:49.019Z,19.1
2019-04-14T06:22:38.809Z,19.1
2019-04-14T06:23:29.120Z,19
2019-04-14T06:24:19.967Z,19
2019-04-14T06:25:09.178Z,18.9
2019-04-14T06:25:59.241Z,18.9
2019-04-14T06:26:49.718Z,18.9
2019-04-14T06:27:39.412Z,18.9
2019-04-14T06:28:29.496Z,18.9
2019-04-14T06:29:18.405Z,18.8
2019-04-14T06:30:09.610Z,18.8
2019-04-14T06:30:58.384Z,18.8
2019-04-14T06:31:49.698Z,18.8
2019-04-14T06:34:19.353Z,18.6
2019-04-14T06:35:09.957Z,18.6
2019-04-14T06:36:00.022Z,18.6
2019-04-14T06:36:50.047Z,18.6
2019-04-14T06:37:38.576Z,18.6
2019-04-14T06:38:29.257Z,18.5
2019-04-14T06:39:19.801Z,18.5
2019-04-14T06:40:09.349Z,18.4
2019-04-14T06:41:00.395Z,18.4
2019-04-14T06:41:49.961Z,18.4
2019-04-14T06:42:40.541Z,18.4
2019-04-14T06:43:30.049Z,18.4
2019-04-14T06:44:19.351Z,18.3
2019-04-14T06:45:10.476Z,18.3
2019-04-14T06:46:00.922Z,18.3
2019-04-14T06:46:51.921Z,18.3
2019-04-14T06:47:41.061Z,18.2
2019-04-14T06:48:30.634Z,18.2
2019-04-14T06:49:20.804Z,18.1
2019-04-14T06:50:11.086Z,18.1
2019-04-14T06:51:01.590Z,18.1
2019-04-14T06:51:50.643Z,18.1
2019-04-14T06:52:41.516Z,18.2
2019-04-14T06:53:32.109Z,18.3
2019-04-14T06:54:21.205Z,18.3
2019-04-14T06:55:11.722Z,18.4
2019-04-14T06:56:03.280Z,18.4
2019-04-14T06:56:51.511Z,18.5
2019-04-14T06:57:40.810Z,18.6
2019-04-14T06:59:21.678Z,18.8
2019-04-14T07:00:12.123Z,18.8
2019-04-14T07:01:01.215Z,18.6
2019-04-14T07:01:52.994Z,18.6
2019-04-14T07:02:42.160Z,18.6
2019-04-14T07:06:00.690Z,18.8
2019-04-14T07:06:48.200Z,18.8
2019-04-14T07:07:36.527Z,18.8
2019-04-14T07:08:30.860Z,18.8
2019-04-14T07:09:17.567Z,18.8
2019-04-14T07:10:08.611Z,18.8
2019-04-14T07:10:57.770Z,18.8
2019-04-14T07:11:48.155Z,18.8
2019-04-14T07:12:38.538Z,18.8
2019-04-14T07:15:59.280Z,18.6
2019-04-14T07:16:52.188Z,18.6
2019-04-14T07:17:39.434Z,18.6
2019-04-14T07:18:28.105Z,18.6
2019-04-14T07:19:19.008Z,18.6
2019-04-14T07:20:11.762Z,18.6
2019-04-14T07:20:59.504Z,18.5
2019-04-14T07:21:49.229Z,18.5
2019-04-14T07:22:39.282Z,18.4
2019-04-14T07:23:28.999Z,18.4
2019-04-14T07:24:19.059Z,18.4
2019-04-14T07:25:08.675Z,18.4
2019-04-14T07:25:59.406Z,18.3
2019-04-14T07:26:49.784Z,18.3
2019-04-14T07:27:38.881Z,18.3
2019-04-14T07:28:29.454Z,18.3
2019-04-14T07:29:23.107Z,18.3
2019-04-14T07:30:09.832Z,18.3
2019-04-14T07:31:00.106Z,18.3
2019-04-14T07:31:49.675Z,18.2
2019-04-14T07:32:39.747Z,18.2
2019-04-14T07:33:29.434Z,18.2
2019-04-14T07:34:19.839Z,18.1
2019-04-14T07:35:11.003Z,18.1
2019-04-14T07:36:00.430Z,18.1
2019-04-14T07:36:50.229Z,18.1
2019-04-14T07:37:40.059Z,18.1
2019-04-14T07:38:30.937Z,18
2019-04-14T07:39:21.039Z,18
2019-04-14T07:40:09.566Z,17.9
2019-04-14T07:41:00.617Z,17.9
2019-04-14T07:41:49.563Z,17.9
2019-04-14T07:42:41.227Z,17.9
2019-04-14T07:43:29.728Z,17.9
2019-04-14T07:44:23.978Z,17.9
2019-04-14T07:45:10.157Z,17.9
2019-04-14T07:46:01.389Z,17.9
2019-04-14T07:46:51.406Z,18.1
2019-04-14T07:47:41.648Z,18.1
2019-04-14T07:48:31.802Z,18.1
2019-04-14T07:49:20.916Z,18.2
2019-04-14T07:50:24.140Z,18.3
2019-04-14T07:51:01.873Z,18.4
2019-04-14T07:51:51.223Z,18.4
2019-04-14T07:52:41.337Z,18.6
2019-04-14T07:53:30.777Z,18.6
2019-04-14T07:54:21.360Z,18.4
2019-04-14T07:55:11.682Z,18.4
2019-04-14T07:56:02.032Z,18.4
2019-04-14T07:56:51.025Z,18.4
2019-04-14T07:57:41.245Z,18.4
2019-04-14T07:58:32.432Z,18.5
2019-04-14T07:59:21.452Z,18.6
2019-04-14T08:00:11.465Z,18.6
2019-04-14T08:02:41.362Z,18.6
2019-04-14T08:03:32.344Z,18.6
2019-04-14T08:04:21.849Z,18.6
2019-04-14T08:05:11.909Z,18.6
2019-04-14T08:06:02.157Z,18.6
2019-04-14T08:06:53.157Z,18.6
2019-04-14T08:07:42.005Z,18.6
2019-04-14T08:08:32.597Z,18.6
2019-04-14T08:09:22.969Z,18.6
2019-04-14T08:10:12.277Z,18.6
2019-04-14T08:11:01.753Z,18.6
2019-04-14T08:11:52.504Z,18.5
2019-04-14T08:12:43.713Z,18.5
2019-04-14T08:13:32.844Z,18.4
2019-04-14T08:14:22.832Z,18.4
2019-04-14T08:15:12.374Z,18.4
2019-04-14T08:16:01.678Z,18.4
2019-04-14T08:16:54.136Z,18.4
2019-04-14T08:17:44.079Z,18.3
2019-04-14T08:18:33.640Z,18.3
2019-04-14T08:19:23.457Z,18.3
2019-04-14T08:20:13.240Z,18.3
2019-04-14T08:21:03.871Z,18.3
2019-04-14T08:21:53.330Z,18.3
2019-04-14T08:22:43.136Z,18.2
2019-04-14T08:23:33.686Z,18.2
2019-04-14T08:24:22.686Z,18.2
2019-04-14T08:25:12.986Z,18.1
2019-04-14T08:26:04.383Z,18.1
2019-04-14T08:26:53.016Z,18.1
2019-04-14T08:27:44.785Z,18.1
2019-04-14T08:28:34.306Z,18.1
2019-04-14T08:29:23.927Z,18
2019-04-14T08:30:14.208Z,18
2019-04-14T08:31:04.661Z,18
2019-04-14T08:31:54.018Z,17.9
2019-04-14T08:32:44.266Z,17.9
2019-04-14T08:33:34.746Z,17.9
2019-04-14T08:34:25.078Z,17.9
2019-04-14T08:35:13.970Z,17.8
2019-04-14T08:36:05.178Z,17.9
2019-04-14T08:36:53.903Z,17.8
2019-04-14T08:37:44.198Z,17.8
2019-04-14T08:38:34.785Z,17.9
2019-04-14T08:39:25.098Z,17.9
2019-04-14T08:40:14.938Z,18
2019-04-14T08:41:04.163Z,18.1
2019-04-14T08:41:54.126Z,18.1
2019-04-14T08:42:45.081Z,18.3
2019-04-14T08:43:34.609Z,18.3
2019-04-14T08:44:24.941Z,18.3
2019-04-14T08:45:15.863Z,18.4
2019-04-14T08:46:04.561Z,18.5
2019-04-14T08:46:55.158Z,18.4
2019-04-14T08:47:45.264Z,18.4
2019-04-14T08:48:34.942Z,18.4
2019-04-14T08:49:26.139Z,18.4
2019-04-14T08:50:15.898Z,18.5
2019-04-14T08:51:05.692Z,18.5
2019-04-14T08:51:56.069Z,18.5
2019-04-14T08:52:45.353Z,18.5
2019-04-14T08:53:35.003Z,18.6
2019-04-14T08:54:25.662Z,18.6
2019-04-14T08:55:16.305Z,18.6
2019-04-14T08:56:05.782Z,18.5
2019-04-14T08:56:55.874Z,18.6
2019-04-14T08:57:45.677Z,18.6
2019-04-14T08:58:34.897Z,18.6
2019-04-14T08:59:25.522Z,18.6
2019-04-14T09:00:15.874Z,18.6
2019-04-14T09:01:05.896Z,18.5
2019-04-14T09:01:55.783Z,18.5
2019-04-14T09:02:44.646Z,18.4
2019-04-14T09:03:36.583Z,18.4
2019-04-14T09:04:25.826Z,18.4
2019-04-14T09:05:16.297Z,18.4
2019-04-14T09:06:05.478Z,18.4
2019-04-14T09:06:57.133Z,18.4
2019-04-14T09:07:47.216Z,18.4
2019-04-14T09:08:36.941Z,18.4
2019-04-14T09:09:26.883Z,18.3
2019-04-14T09:10:17.276Z,18.3
2019-04-14T09:11:07.377Z,18.3
2019-04-14T09:11:57.211Z,18.3
2019-04-14T09:12:47.276Z,18.3
2019-04-14T09:13:37.131Z,18.3
2019-04-14T09:14:27.784Z,18.3
2019-04-14T09:15:17.363Z,18.2
2019-04-14T09:16:06.840Z,18.2
2019-04-14T09:16:57.860Z,18.2
2019-04-14T09:17:47.431Z,18.1
2019-04-14T09:18:37.263Z,18.1
2019-04-14T09:19:27.916Z,18.1
2019-04-14T09:20:16.373Z,18.1
2019-04-14T09:21:06.058Z,18.1
2019-04-14T09:21:58.496Z,18
2019-04-14T09:22:48.055Z,18
2019-04-14T09:23:38.099Z,18
2019-04-14T09:24:27.163Z,17.9
2019-04-14T09:25:17.913Z,17.9
2019-04-14T09:26:08.277Z,17.9
2019-04-14T09:26:58.009Z,17.9
2019-04-14T09:27:48.111Z,17.9
2019-04-14T09:28:39.008Z,17.9
2019-04-14T09:29:28.052Z,17.8
2019-04-14T09:30:18.834Z,17.8
2019-04-14T09:31:08.127Z,17.8
2019-04-14T09:31:59.489Z,17.8
2019-04-14T09:32:48.772Z,17.9
2019-04-14T09:33:39.417Z,18
2019-04-14T09:34:29.120Z,18.1
2019-04-14T09:35:18.450Z,18.1
2019-04-14T09:36:08.457Z,18.3
2019-04-14T09:36:58.807Z,18.3
2019-04-14T09:37:49.207Z,18.4
2019-04-14T09:38:39.439Z,18.4
2019-04-14T09:39:29.079Z,18.6
2019-04-14T09:40:18.414Z,18.6
2019-04-14T09:41:08.813Z,18.5
2019-04-14T09:41:59.681Z,18.5
2019-04-14T09:42:48.657Z,18.4
2019-04-14T09:43:39.227Z,18.5
2019-04-14T09:44:29.332Z,18.5
2019-04-14T09:45:19.381Z,18.6
2019-04-14T09:46:09.991Z,18.6
2019-04-14T09:46:59.107Z,18.6
2019-04-14T09:47:49.661Z,18.6
2019-04-14T09:50:18.654Z,18.6
2019-04-14T09:51:13.986Z,18.6
2019-04-14T09:52:00.137Z,18.6
2019-04-14T09:52:50.011Z,18.6
2019-04-14T09:53:39.968Z,18.6
2019-04-14T09:54:30.588Z,18.6
2019-04-14T09:55:23.972Z,18.6
2019-04-14T09:56:10.871Z,18.6
2019-04-14T09:57:00.566Z,18.5
2019-04-14T09:57:50.636Z,18.5
2019-04-14T09:58:40.620Z,18.5
2019-04-14T09:59:30.970Z,18.4
2019-04-14T10:00:19.675Z,18.4
2019-04-14T10:01:13.667Z,18.4
2019-04-14T10:02:00.892Z,18.4
2019-04-14T10:02:50.470Z,18.4
2019-04-14T10:03:41.829Z,18.4
2019-04-14T10:06:08.275Z,18.3
2019-04-14T10:06:58.830Z,18.3
2019-04-14T10:07:48.383Z,18.3
2019-04-14T10:08:37.321Z,18.3
2019-04-14T10:09:28.813Z,18.3
2019-04-14T10:10:19.383Z,18.3
2019-04-14T10:11:07.677Z,18.2
2019-04-14T10:12:05.625Z,18.2
2019-04-14T10:12:48.945Z,18.2
2019-04-14T10:13:38.357Z,18.1
2019-04-14T10:14:27.615Z,18.1
2019-04-14T10:15:18.240Z,18.1
2019-04-14T10:16:08.039Z,18.1
2019-04-14T10:17:01.744Z,18.1
2019-04-14T10:17:47.618Z,18
2019-04-14T10:18:38.200Z,18
2019-04-14T10:19:26.860Z,18
2019-04-14T10:20:19.127Z,17.9
2019-04-14T10:21:22.962Z,17.9
2019-04-14T10:21:58.448Z,17.9
2019-04-14T10:22:48.229Z,17.9
2019-04-14T10:23:42.367Z,17.9
2019-04-14T10:24:28.961Z,17.8
2019-04-14T10:25:18.972Z,17.8
2019-04-14T10:26:09.326Z,17.9
2019-04-14T10:26:58.237Z,18
2019-04-14T10:27:49.182Z,18.1
2019-04-14T10:28:39.442Z,18.1
2019-04-14T10:29:28.716Z,18.2
2019-04-14T10:30:19.360Z,18.3
2019-04-14T10:31:09.371Z,18.3
2019-04-14T10:31:59.967Z,18.4
2019-04-14T10:32:48.667Z,18.6
2019-04-14T10:33:39.309Z,18.6
2019-04-14T10:35:19.451Z,18.6
2019-04-14T10:36:09.856Z,18.6
2019-04-14T10:36:59.051Z,18.5
2019-04-14T10:37:48.982Z,18.6
2019-04-14T10:38:40.176Z,18.6
2019-04-14T10:39:27.826Z,18.6
2019-04-14T10:40:19.037Z,18.6
2019-04-14T10:41:10.461Z,18.6
2019-04-14T10:41:59.952Z,18.6
2019-04-14T10:47:00.561Z,18.6
2019-04-14T10:47:50.354Z,18.6
2019-04-14T10:48:40.215Z,18.6
2019-04-14T10:49:30.229Z,18.6
2019-04-14T10:50:34.138Z,18.6
2019-04-14T10:51:11.683Z,18.6
2019-04-14T10:52:01.212Z,18.6
2019-04-14T10:52:50.699Z,18.6
2019-04-14T10:53:41.655Z,18.6
2019-04-14T10:54:31.836Z,18.6
2019-04-14T10:55:21.214Z,18.5
2019-04-14T10:56:12.046Z,18.5
2019-04-14T10:57:04.819Z,18.5
2019-04-14T10:57:51.688Z,18.4
2019-04-14T10:58:41.750Z,18.4
2019-04-14T10:59:32.025Z,18.4
2019-04-14T11:00:21.576Z,18.4
2019-04-14T11:01:11.366Z,18.4
2019-04-14T11:02:01.500Z,18.3
2019-04-14T11:02:50.737Z,18.3
2019-04-14T11:03:41.099Z,18.3
2019-04-14T11:04:31.067Z,18.3
2019-04-14T11:05:22.240Z,18.3
2019-04-14T11:06:10.630Z,18.3
2019-04-14T11:07:01.813Z,18.3
2019-04-14T11:07:51.653Z,18.2
2019-04-14T11:08:41.631Z,18.2
2019-04-14T11:09:31.405Z,18.1
2019-04-14T11:10:20.956Z,18.1
2019-04-14T11:11:12.919Z,18.1
2019-04-14T11:12:00.574Z,18.1
2019-04-14T11:12:51.779Z,18
2019-04-14T11:13:42.273Z,18
2019-04-14T11:14:31.774Z,18
2019-04-14T11:15:23.773Z,17.9
2019-04-14T11:16:12.979Z,17.9
2019-04-14T11:17:02.697Z,17.9
2019-04-14T11:17:52.799Z,17.9
2019-04-14T11:18:42.113Z,17.9
2019-04-14T11:19:32.438Z,17.9
2019-04-14T11:20:22.689Z,17.9
2019-04-14T11:21:13.911Z,17.9
2019-04-14T11:22:03.342Z,18.1
2019-04-14T11:23:07.014Z,18.1
2019-04-14T11:23:42.913Z,18.2
2019-04-14T11:24:33.412Z,18.2
2019-04-14T11:25:23.581Z,18.3
2019-04-14T11:26:13.198Z,18.4
2019-04-14T11:27:04.323Z,18.4
2019-04-14T11:27:54.628Z,18.6
2019-04-14T11:28:43.618Z,18.6
2019-04-14T11:29:34.745Z,18.6
2019-04-14T11:30:24.228Z,18.5
2019-04-14T11:31:13.752Z,18.5
2019-04-14T11:32:04.141Z,18.6
2019-04-14T11:32:53.665Z,18.6
2019-04-14T11:33:43.190Z,18.6
2019-04-14T11:37:04.583Z,18.8
2019-04-14T11:37:54.398Z,18.8
2019-04-14T11:38:44.730Z,18.8
2019-04-14T11:39:34.797Z,18.8
2019-04-14T11:40:24.130Z,18.8
2019-04-14T11:41:15.215Z,18.8
2019-04-14T11:42:05.257Z,18.8
2019-04-14T11:43:02.460Z,18.8
2019-04-14T11:43:45.129Z,18.8
2019-04-14T11:44:35.148Z,18.8
2019-04-14T11:45:25.698Z,18.8
2019-04-14T11:48:45.024Z,18.6
2019-04-14T11:49:35.154Z,18.6
2019-04-14T11:50:25.022Z,18.6
2019-04-14T11:51:14.750Z,18.6
2019-04-14T11:52:05.419Z,18.5
2019-04-14T11:52:55.099Z,18.5
2019-04-14T11:53:46.511Z,18.4
2019-04-14T11:54:36.306Z,18.4
2019-04-14T11:55:24.513Z,18.4
2019-04-14T11:56:16.088Z,18.4
2019-04-14T11:57:05.697Z,18.4
2019-04-14T11:57:55.715Z,18.4
2019-04-14T11:58:46.400Z,18.3
2019-04-14T11:59:35.054Z,18.3
2019-04-14T12:00:26.646Z,18.3
2019-04-14T12:01:15.695Z,18.3
2019-04-14T12:02:06.756Z,18.3
2019-04-14T12:02:56.438Z,18.3
2019-04-14T12:03:46.505Z,18.3
2019-04-14T12:06:37.058Z,18.1
2019-04-14T12:07:13.943Z,18.1
2019-04-14T12:08:02.878Z,18.1
2019-04-14T12:08:37.294Z,18.1
2019-04-14T12:09:28.213Z,18.1
2019-04-14T12:10:32.833Z,18.1
2019-04-14T12:11:08.811Z,18
2019-04-14T12:11:58.923Z,18
2019-04-14T12:12:47.738Z,18
2019-04-14T12:13:37.520Z,17.9
2019-04-14T12:14:44.302Z,17.9
2019-04-14T12:15:26.233Z,18
2019-04-14T12:16:08.545Z,18.1
2019-04-14T12:16:58.890Z,18.1
2019-04-14T12:17:48.728Z,18.3
2019-04-14T12:19:08.533Z,18.3
2019-04-14T12:19:44.138Z,18.4
2019-04-14T12:20:18.412Z,18.5
2019-04-14T12:21:09.457Z,18.6
2019-04-14T12:22:48.402Z,18.8
2019-04-14T12:23:39.058Z,18.9
2019-04-14T12:24:29.584Z,18.8
2019-04-14T12:25:20.280Z,18.8
2019-04-14T12:26:59.670Z,18.8
2019-04-14T12:28:00.012Z,18.8
2019-04-14T12:28:51.481Z,18.8
2019-04-14T12:29:56.646Z,18.8
2019-04-14T12:30:33.102Z,18.8
2019-04-14T12:31:22.345Z,18.8
2019-04-14T12:32:20.724Z,18.8
2019-04-14T12:32:49.897Z,18.8
2019-04-14T12:33:55.415Z,18.8
2019-04-14T12:34:44.036Z,18.8
2019-04-14T12:35:35.181Z,18.8
2019-04-14T12:36:11.041Z,18.8
2019-04-14T12:37:01.014Z,18.8
2019-04-14T12:37:49.987Z,18.8
2019-04-14T12:38:40.179Z,18.8
2019-04-14T12:39:29.939Z,18.8
2019-04-14T12:40:18.664Z,18.8
2019-04-14T12:41:49.151Z,18.8
2019-04-14T12:45:21.945Z,18.6
2019-04-14T12:46:13.248Z,18.6
2019-04-14T12:47:00.671Z,18.6
2019-04-14T12:48:05.543Z,18.6
2019-04-14T12:48:40.601Z,18.5
2019-04-14T12:49:45.366Z,18.5
2019-04-14T12:50:20.974Z,18.5
2019-04-14T12:52:00.796Z,18.4
2019-04-14T12:53:06.388Z,18.4
2019-04-14T12:53:41.336Z,18.4
2019-04-14T12:54:31.645Z,18.4
2019-04-14T12:55:22.126Z,18.4
2019-04-14T12:56:11.902Z,18.3
2019-04-14T12:57:01.340Z,18.3
2019-04-14T12:57:52.310Z,18.3
2019-04-14T12:58:42.053Z,18.3
2019-04-14T12:59:31.928Z,18.3
2019-04-14T13:00:22.563Z,18.3
2019-04-14T13:01:13.103Z,18.2
2019-04-14T13:02:17.272Z,18.2
2019-04-14T13:02:52.078Z,18.2
2019-04-14T13:03:56.370Z,18.2
2019-04-14T13:04:32.934Z,18.1
2019-04-14T13:05:22.355Z,18.1
2019-04-14T13:06:12.615Z,18.1
2019-04-14T13:07:02.503Z,18.1
2019-04-14T13:08:08.165Z,18.1
2019-04-14T13:08:57.404Z,18
2019-04-14T13:09:33.148Z,18